Tecumseh, Canada
Current Conditions -  °F | °C
As of 9:00 AM on Friday 28 Nov 2014 (Local Time) from CYQG Reporting Station
Broken Clouds Broken Clouds  
Wind Chill: 21°   Ceiling: 19000
Heat Index: 21°   Visibility: 15mi
Dew Point:   Wind: 3mph
Humidity: 54%   Direction: 310°NW
Pressure: 30.34"   Gusts: NA
Location:  42.32°N, 82.89°W
Report Text: CYQG 281400Z 31003KT 240V010 15SM FEW035 FEW140 BKN190 M06/M14 A3034 RMK SC1AC1AC7 SC TR AC TR SLP284
Loading
Personal Weather Stations






























Interactive Weather Map New forecast layout! Learn more

10-Day Weather Forecast

Advertisements
Track Severe Weather on mobile